NEODyS-2

Near Earth Objects - Dynamic Site
NEODyS ∴ Observatories ∴ Site 691 ∴ Obs & residuals
Contact »
691  ▹ 
OBSERVATIONS AND RESIDUALS

691-Steward Observatory, Kitt Peak-Spacewatch

Detections | Residuals | Detections & Residuals

[1-200] [201-400] [401-600] [601-800] [801-1000] [1001-1200] [1201-1400] [1401-1600] [1601-1800] [1801-2000] [2001-2200] [2201-2400] [2401-2600] [2601-2800] [2801-3000] [3001-3200] [3201-3400] [3401-3600] [3601-3800] [3801-4000] [4001-4200] [4201-4400] [4401-4600] [4601-4800] [4801-5000] [5001-5200] [5201-5400] [5401-5600] [5601-5800] [5801-6000] [6001-6200] [6201-6400] [6401-6600] [6601-6800] [6801-7000] [7001-7200] [7201-7400] [7401-7600] [7601-7800] [7801-8000] [8001-8200] [8201-8400] [8401-8600] [8601-8800] [8801-9000] [9001-9200] [9201-9400] [9401-9600] [9601-9800] [9801-10000] [10001-10200] [10201-10400] [10401-10600] [10601-10800] [10801-11000] [11001-11200] [11201-11400] [11401-11600] [11601-11800] [11801-12000] [12001-12200] [12201-12400] [12401-12600] [12601-12800] [12801-13000] [13001-13200] [13201-13400] [13401-13600] [13601-13800] [13801-14000] [14001-14200] [14201-14400] [14401-14600] [14601-14800] [14801-15000] [15001-15200] [15201-15400] [15401-15600] [15601-15800] [15801-16000] [16001-16200] [16201-16400] [16401-16600] [16601-16800] [16801-17000] [17001-17200] [17201-17400] [17401-17600] [17601-17800] [17801-18000] [18001-18200] [18201-18400] [18401-18600] [18601-18800] [18801-19000] [19001-19200] [19201-19400] [19401-19600] [19601-19800] [19801-20000] [20001-20200] [20201-20400] [20401-20600] [20601-20800] [20801-21000] [21001-21200] [21201-21400] [21401-21600] [21601-21800] [21801-22000] [22001-22200] [22201-22400] [22401-22600] [22601-22800] [22801-23000] [23001-23200] [23201-23400] [23401-23600] [23601-23800] [23801-24000] [24001-24200] [24201-24400] [24401-24600] [24601-24800] [24801-25000] [25001-25200] [25201-25400] [25401-25600] [25601-25800] [25801-26000] [26001-26200] [26201-26400] [26401-26600] [26601-26800] [26801-27000] [27001-27200] [27201-27400] [27401-27600] [27601-27800] [27801-28000] [28001-28200] [28201-28400] [28401-28600] [28601-28800] [28801-29000] [29001-29200] [29201-29400] [29401-29600] [29601-29800] [29801-30000] [30001-30200] [30201-30400] [30401-30600] [30601-30800] [30801-31000] [31001-31200] [31201-31400] [31401-31600] [31601-31800] [31801-32000] [32001-32200] [32201-32400] [32401-32600] [32601-32800] [32801-33000] [33001-33200] [33201-33400] [33401-33600] [33601-33800] [33801-34000] [34001-34200] [34201-34400] [34401-34600] [34601-34800] [34801-35000] [35001-35200] [35201-35400] [35401-35600] [35601-35800] [35801-36000] [36001-36200] [36201-36400] [36401-36600] [36601-36800] [36801-37000] [37001-37200] [37201-37400] [37401-37600] [37601-37800] [37801-38000] [38001-38200] [38201-38400] [38401-38600] [38601-38800] [38801-39000] [39001-39200] [39201-39400] [39401-39600] [39601-39800] [39801-40000] [40001-40200] [40201-40400] [40401-40600] [40601-40800] [40801-41000] [41001-41200] [41201-41400] [41401-41600] [41601-41800] [41801-42000] [42001-42200] [42201-42400] [42401-42600] [42601-42800] [42801-43000] [43001-43200] [43201-43400] [43401-43600] [43601-43800] [43801-44000] [44001-44200] [44201-44400] [44401-44600] [44601-44800] [44801-45000] [45001-45200] [45201-45400] [45401-45600] [45601-45800] [45801-46000] [46001-46200] [46201-46400] [46401-46600] [46601-46800] [46801-47000] [47001-47200] [47201-47400] [47401-47600] [47601-47800] [47801-48000] [48001-48200] [48201-48400] [48401-48600] [48601-48800] [48801-49000] [49001-49200] [49201-49400] [49401-49600] [49601-49800] [49801-50000] [50001-50200] [50201-50388]

Designation T Tech N Date Right Ascension Declination Apparent Magnitude Star Catalog Site code χ Used A Used M
yr-mo-day precision hr:min:sec precision rms F bias residual deg min sec precision rms F bias residual mag/col rms residual
Davidharvey O C 2009-11-26.51728 1.000E-05 11:27:09.370 1.500E-01 0.500 F 0.116 -0.294 +06° 34' 28.60" 1.000E-01 0.500 F 0.173 0.168 19.7 V 0.70 0.38 o 691 0.68 Yes Yes
Davidharvey O C 2009-11-26.52986 1.000E-05 11:27:11.090 1.500E-01 0.500 F 0.116 -0.505 +06° 34' 14.80" 1.000E-01 0.500 F 0.173 0.001 20.0 V 0.70 0.68 o 691 1.01 Yes Yes
2006PA1 O C t 2009-11-26.54000 1.000E-05 11:17:02.220 1.500E-01 0.500 F 0.170 0.838 +06° 48' 58.00" 1.000E-01 0.500 F 0.151 0.128 21.3 V 0.70 -0.21 o 691 1.70 Yes Yes
Davidharvey O C 2009-11-26.54246 1.000E-05 11:27:12.830 1.500E-01 0.500 F 0.116 -0.437 +06° 34' 01.20" 1.000E-01 0.500 F 0.173 0.059 19.9 V 0.70 0.58 o 691 0.88 Yes Yes
2000WN10 O C 2009-11-27.10300 1.000E-05 03:09:39.060 1.500E-01 0.500 F -0.170 -0.188 +22° 08' 06.90" 1.000E-01 0.500 F 0.336 0.053 18.2 V 0.70 0.63 o 691 0.39 Yes Yes
2000WN10 O C 2009-11-27.12071 1.000E-05 03:09:32.460 1.500E-01 0.500 F -0.170 -0.183 +22° 09' 22.30" 1.000E-01 0.500 F 0.336 0.029 18.0 V 0.70 0.42 o 691 0.37 Yes Yes
2009WH104 O C H 2009-11-27.13324 1.000E-05 03:20:52.610 1.500E-01 0.500 F -0.264 1.384 +20° 27' 00.20" 1.000E-01 0.500 F 0.307 1.084 o 691 3.33 No No
2000WN10 O C 2009-11-27.13843 1.000E-05 03:09:25.840 1.500E-01 0.500 F -0.170 -0.100 +22° 10' 37.50" 1.000E-01 0.500 F 0.336 -0.016 17.8 V 0.70 0.22 o 691 0.20 Yes Yes
2009WH104 O C H 2009-11-27.15094 1.000E-05 03:20:53.150 1.500E-01 0.500 F -0.264 0.397 +20° 26' 13.70" 1.000E-01 0.500 F 0.307 -0.646 20.6 V 0.70 0.23 o 691 1.65 Yes Yes
2009VY25 O C H 2009-11-27.16974 1.000E-05 03:41:27.280 1.500E-01 0.500 F -0.065 0.125 +26° 58' 42.30" 1.000E-01 0.500 F 0.154 -0.207 20.6 V 0.70 -0.64 o 691 0.49 Yes Yes
2009VY25 O C H 2009-11-27.20515 1.000E-05 03:41:24.460 1.500E-01 0.500 F -0.065 0.313 +26° 58' 25.60" 1.000E-01 0.500 F 0.154 -0.204 20.7 V 0.70 -0.54 o 691 0.76 Yes Yes
2009WA52 O C t 2009-11-27.22761 1.000E-05 04:13:21.360 1.500E-01 0.500 F -0.115 0.996 +27° 15' 45.10" 1.000E-01 0.500 F 0.193 -0.505 20.3 V 0.70 0.15 o 691 2.63 Yes Yes
2009WA52 O C t 2009-11-27.24531 1.000E-05 04:13:34.260 1.500E-01 0.500 F -0.115 -0.209 +27° 16' 09.80" 1.000E-01 0.500 F 0.193 -0.512 20.5 V 0.70 0.36 o 691 1.24 Yes Yes
2009WA52 O C t 2009-11-27.26302 1.000E-05 04:13:47.220 1.500E-01 0.500 F -0.115 -0.634 +27° 16' 33.70" 1.000E-01 0.500 F 0.193 -0.453 20.4 V 0.70 0.26 o 691 1.86 Yes Yes
2001HA8 O C H 2009-11-27.37534 1.000E-05 05:47:14.760 1.500E-01 0.500 F -0.070 1.152 +18° 35' 16.10" 1.000E-01 0.500 F 0.157 -1.332 o 691 3.50 No No
2001HA8 O C H 2009-11-27.39300 1.000E-05 05:47:13.490 1.500E-01 0.500 F -0.070 0.568 +18° 35' 18.50" 1.000E-01 0.500 F 0.157 -0.617 o 691 1.69 Yes No
2001HA8 O C H 2009-11-27.41067 1.000E-05 05:47:12.260 1.500E-01 0.500 F -0.070 0.559 +18° 35' 19.90" 1.000E-01 0.500 F 0.157 -0.890 o 691 2.11 Yes No
2004KD1 O C H 2009-12-16.21081 1.000E-05 06:51:24.830 1.500E-01 0.500 F -0.126 -0.038 +22° 02' 57.80" 1.000E-01 0.500 F 0.191 -0.335 21.0 V 0.70 0.25 o 691 0.67 Yes Yes
2009RN O C H 2009-12-16.21847 1.000E-05 06:42:51.560 1.500E-01 0.500 F -0.125 -0.186 +21° 18' 31.10" 1.000E-01 0.500 F 0.129 0.085 18.5 V 0.70 0.38 o 691 0.41 Yes Yes
2004KD1 O C H 2009-12-16.22852 1.000E-05 06:51:23.270 1.500E-01 0.500 F -0.126 0.119 +22° 02' 54.90" 1.000E-01 0.500 F 0.191 -0.616 20.6 V 0.70 -0.15 o 691 1.26 Yes Yes
2009RN O C H 2009-12-16.23618 1.000E-05 06:42:51.640 1.500E-01 0.500 F -0.125 0.294 +21° 18' 48.90" 1.000E-01 0.500 F 0.129 -0.370 o 691 0.96 Yes No
2009RN O C H 2009-12-16.25389 1.000E-05 06:42:51.640 1.500E-01 0.500 F -0.125 -0.084 +21° 19' 07.40" 1.000E-01 0.500 F 0.129 -0.016 18.4 V 0.70 0.28 o 691 0.18 Yes Yes
2005YY128 O C H 2009-12-17.19573 1.000E-05 06:55:12.340 1.500E-01 0.500 F -0.066 1.569 +25° 27' 49.90" 1.000E-01 0.500 F 0.135 0.725 21.6 V 0.70 0.08 o 691 3.45 No Yes
2005YY128 O C H 2009-12-17.21345 1.000E-05 06:55:10.520 1.500E-01 0.500 F -0.066 1.854 +25° 27' 51.20" 1.000E-01 0.500 F 0.135 -0.326 o 691 3.75 No No
2009XE11 O C 2009-12-17.29692 1.000E-05 07:36:39.550 1.500E-01 0.500 F -0.088 -0.248 +22° 21' 57.40" 1.000E-01 0.500 F 0.196 0.275 20.3 V 0.70 -0.30 o 691 0.75 Yes Yes
2009XE11 O C 2009-12-17.31464 1.000E-05 07:36:38.780 1.500E-01 0.500 F -0.088 -0.264 +22° 22' 05.30" 1.000E-01 0.500 F 0.196 0.340 20.6 V 0.70 0.00 o 691 0.87 Yes Yes
2009XE11 O C 2009-12-17.33236 1.000E-05 07:36:38.020 1.500E-01 0.500 F -0.088 -0.106 +22° 22' 12.90" 1.000E-01 0.500 F 0.196 0.122 20.7 V 0.70 0.10 o 691 0.33 Yes Yes
2003XF11 O C 2009-12-17.46717 1.000E-05 11:50:38.000 1.500E-01 0.500 F 0.180 -1.169 +06° 22' 11.70" 1.000E-01 0.500 F 0.179 0.021 20.5 V 0.70 -0.32 o 691 2.35 Yes Yes
2001OZ13 O C H 2009-12-17.48663 1.000E-05 11:50:45.600 1.500E-01 0.500 F 0.196 0.342 +08° 06' 41.20" 1.000E-01 0.500 F 0.162 -0.420 o 691 1.08 Yes No
2003XF11 O C 2009-12-17.48924 1.000E-05 11:50:39.990 1.500E-01 0.500 F 0.180 -0.534 +06° 22' 04.80" 1.000E-01 0.500 F 0.179 -0.175 20.5 V 0.70 -0.32 o 691 1.13 Yes Yes
2001OZ13 O C H 2009-12-17.50524 1.000E-05 11:50:49.040 1.500E-01 0.500 F 0.196 -0.532 +08° 06' 35.60" 1.000E-01 0.500 F 0.162 -0.117 20.0 V 0.70 0.29 o 691 1.09 Yes Yes
2003XF11 O C 2009-12-17.50785 1.000E-05 11:50:41.640 1.500E-01 0.500 F 0.180 -0.389 +06° 21' 59.70" 1.000E-01 0.500 F 0.179 0.384 21.1 V 0.70 0.29 o 691 1.09 Yes Yes
2009BP58 O C H 2009-12-18.08098 1.000E-05 03:38:42.440 1.500E-01 0.500 F -0.262 0.084 +13° 51' 48.00" 1.000E-01 0.500 F 0.149 -0.187 o 691 0.41 Yes No
2009WF104 O C 2009-12-18.08358 1.000E-05 03:34:50.510 1.500E-01 0.500 F -0.383 -0.178 +11° 54' 23.90" 1.000E-01 0.500 F 0.177 0.023 20.5 V 0.70 -0.19 o 691 0.36 Yes Yes
2009BP58 O C H 2009-12-18.09781 1.000E-05 03:38:41.060 1.500E-01 0.500 F -0.262 0.477 +13° 51' 52.60" 1.000E-01 0.500 F 0.149 0.006 21.4 V 0.70 0.28 o 691 0.97 Yes Yes
2009WF104 O C 2009-12-18.10041 1.000E-05 03:34:49.100 1.500E-01 0.500 F -0.383 -0.178 +11° 54' 28.50" 1.000E-01 0.500 F 0.177 0.270 20.5 V 0.70 -0.19 o 691 0.65 Yes Yes
2009BP58 O C H 2009-12-18.11119 1.000E-05 03:38:39.890 1.500E-01 0.500 F -0.262 -0.242 +13° 51' 55.70" 1.000E-01 0.500 F 0.149 -0.389 21.1 V 0.70 -0.02 o 691 0.93 Yes Yes
2009WF104 O C 2009-12-18.11378 1.000E-05 03:34:47.970 1.500E-01 0.500 F -0.383 -0.295 +11° 54' 32.00" 1.000E-01 0.500 F 0.177 0.317 20.3 V 0.70 -0.39 o 691 0.87 Yes Yes
Golombek O C 2009-12-18.28365 1.000E-05 07:01:43.530 1.500E-01 0.500 F -0.179 -0.021 +29° 54' 43.60" 1.000E-01 0.500 F 0.238 -0.098 20.3 V 0.70 0.05 o 691 0.20 Yes Yes
Golombek O C 2009-12-18.30138 1.000E-05 07:01:42.200 1.500E-01 0.500 F -0.179 -0.113 +29° 54' 44.70" 1.000E-01 0.500 F 0.238 -0.026 20.3 V 0.70 0.05 o 691 0.23 Yes Yes
Golombek O C 2009-12-18.31911 1.000E-05 07:01:40.880 1.500E-01 0.500 F -0.179 -0.053 +29° 54' 45.60" 1.000E-01 0.500 F 0.238 -0.131 20.3 V 0.70 0.05 o 691 0.28 Yes Yes
2006UR O C 2009-12-18.34965 1.000E-05 07:36:06.930 1.500E-01 0.500 F -0.028 0.006 +17° 06' 54.20" 1.000E-01 0.500 F 0.140 0.010 17.8 V 0.70 1.15 o 691 0.02 Yes Yes
2005QL O C 2009-12-18.35458 1.000E-05 07:51:13.970 1.500E-01 0.500 F 0.075 0.008 +16° 38' 03.80" 1.000E-01 0.500 F 0.205 0.119 19.2 V 0.70 0.08 o 691 0.24 Yes Yes
2006UR O C 2009-12-18.36733 1.000E-05 07:36:10.390 1.500E-01 0.500 F -0.028 -0.061 +17° 06' 00.70" 1.000E-01 0.500 F 0.140 0.079 16.5 V 0.70 -0.15 o 691 0.20 Yes Yes
2005QL O C 2009-12-18.37228 1.000E-05 07:51:13.000 1.500E-01 0.500 F 0.075 0.229 +16° 38' 26.40" 1.000E-01 0.500 F 0.205 0.049 19.2 V 0.70 0.08 o 691 0.48 Yes Yes
2006UR O C 2009-12-18.38503 1.000E-05 07:36:13.860 1.500E-01 0.500 F -0.004 0.012 +17° 05' 06.90" 1.000E-01 0.500 F 0.177 0.059 16.5 V 0.70 -0.15 o 691 0.12 Yes Yes
2005QL O C 2009-12-18.38995 1.000E-05 07:51:11.970 1.500E-01 0.500 F 0.075 -0.400 +16° 38' 49.10" 1.000E-01 0.500 F 0.205 0.165 19.3 V 0.70 0.18 o 691 0.89 Yes Yes
2009XO O C 2009-12-18.40036 1.000E-05 08:07:29.820 1.500E-01 0.500 F 0.007 -0.018 +22° 05' 55.80" 1.000E-01 0.500 F 0.215 0.058 18.7 V 0.70 -0.03 o 691 0.12 Yes Yes
2009XO O C 2009-12-18.41809 1.000E-05 08:07:34.660 1.500E-01 0.500 F 0.007 0.093 +22° 05' 45.60" 1.000E-01 0.500 F 0.215 0.032 18.6 V 0.70 -0.13 o 691 0.20 Yes Yes
2009XO O C 2009-12-18.43582 1.000E-05 08:07:39.500 1.500E-01 0.500 F 0.007 0.094 +22° 05' 35.10" 1.000E-01 0.500 F 0.215 -0.101 19.7 V 0.70 0.97 o 691 0.28 Yes Yes
1993DQ1 O C 2009-12-18.45758 1.000E-05 08:40:53.910 1.500E-01 0.500 F -0.072 -0.634 +23° 01' 02.50" 1.000E-01 0.500 F 0.267 -0.310 21.1 V 0.70 -0.23 o 691 1.41 Yes Yes
2002NX O C 2009-12-18.46526 1.000E-05 08:31:25.900 1.500E-01 0.500 F 0.090 -0.615 +21° 37' 07.70" 1.000E-01 0.500 F 0.234 -0.142 20.8 V 0.70 -0.19 o 691 1.27 Yes Yes
1993DQ1 O C 2009-12-18.47532 1.000E-05 08:40:53.140 1.500E-01 0.500 F -0.072 0.053 +23° 01' 04.70" 1.000E-01 0.500 F 0.267 -0.320 20.9 V 0.70 -0.43 o 691 0.65 Yes Yes
2002NX O C 2009-12-18.48299 1.000E-05 08:31:24.040 1.500E-01 0.500 F 0.090 -0.526 +21° 37' 00.50" 1.000E-01 0.500 F 0.234 -0.037 20.8 V 0.70 -0.19 o 691 1.06 Yes Yes
1993DQ1 O C 2009-12-18.49305 1.000E-05 08:40:52.290 1.500E-01 0.500 F -0.072 -0.375 +23° 01' 07.10" 1.000E-01 0.500 F 0.267 -0.114 21.1 V 0.70 -0.23 o 691 0.79 Yes Yes
2002NX O C 2009-12-18.50072 1.000E-05 08:31:22.190 1.500E-01 0.500 F 0.090 -0.326 +21° 36' 53.00" 1.000E-01 0.500 F 0.234 -0.194 20.8 V 0.70 -0.19 o 691 0.76 Yes Yes
1993EA O C 2009-12-18.51500 1.000E-05 11:53:22.930 1.500E-01 0.500 F 0.105 -0.199 +05° 16' 10.00" 1.000E-01 0.500 F 0.174 0.015 19.5 V 0.70 0.01 o 691 0.40 Yes Yes
2018VG8 O C 2009-12-18.52284 1.000E-05 11:40:04.460 1.500E-01 0.500 F 0.372 -0.580 -00° 24' 35.20" 1.000E-01 0.500 F 0.022 0.062 20.9 V 0.70 -0.40 o 691 1.26 Yes Yes
1993EA O C 2009-12-18.53362 1.000E-05 11:53:23.650 1.500E-01 0.500 F 0.105 -0.359 +05° 16' 10.40" 1.000E-01 0.500 F 0.174 0.016 19.5 V 0.70 0.01 o 691 0.72 Yes Yes
2018VG8 O C 2009-12-18.54147 1.000E-05 11:40:06.890 1.500E-01 0.500 F 0.372 -0.082 -00° 24' 44.10" 1.000E-01 0.500 F 0.022 -0.212 20.5 V 0.70 -0.80 o 691 0.46 Yes Yes
1993EA O C 2009-12-18.55225 1.000E-05 11:53:24.370 1.500E-01 0.500 F 0.105 -0.497 +05° 16' 10.80" 1.000E-01 0.500 F 0.174 0.018 19.5 V 0.70 0.01 o 691 1.00 Yes Yes
2018VG8 O C 2009-12-18.56009 1.000E-05 11:40:09.270 1.500E-01 0.500 F 0.372 -0.296 -00° 24' 52.40" 1.000E-01 0.500 F 0.022 0.104 20.5 V 0.70 -0.80 o 691 0.67 Yes Yes
2009UN O C 2009-12-19.22483 1.000E-05 06:43:42.890 1.500E-01 0.500 F -0.059 0.105 +29° 59' 47.60" 1.000E-01 0.500 F 0.058 -0.286 20.5 V 0.70 -0.13 o 691 0.66 Yes Yes
2009UN O C 2009-12-19.24256 1.000E-05 06:43:42.160 1.500E-01 0.500 F -0.059 0.060 +29° 59' 49.50" 1.000E-01 0.500 F 0.058 -0.147 20.6 V 0.70 -0.03 o 691 0.34 Yes Yes
2009UN O C 2009-12-19.26031 1.000E-05 06:43:41.420 1.500E-01 0.500 F -0.059 0.046 +29° 59' 51.30" 1.000E-01 0.500 F 0.058 -0.009 20.6 V 0.70 -0.03 o 691 0.10 Yes Yes
2002UO O C H 2009-12-19.42453 1.000E-05 08:09:09.310 1.500E-01 0.500 F 0.027 0.057 +23° 38' 53.10" 1.000E-01 0.500 F 0.183 -0.563 21.3 V 0.70 0.25 o 691 1.14 Yes Yes
2002UO O C H 2009-12-19.44229 1.000E-05 08:09:07.620 1.500E-01 0.500 F 0.027 -0.165 +23° 39' 06.50" 1.000E-01 0.500 F 0.183 0.417 20.8 V 0.70 -0.25 o 691 0.90 Yes Yes
2009XT6 O C t 2009-12-19.46671 1.000E-05 08:26:47.660 1.500E-01 0.500 F -0.071 0.646 +14° 17' 56.00" 1.000E-01 0.500 F 0.131 -0.892 18.8 V 0.70 0.39 o 691 2.25 Yes Yes
2005UP156 O C H 2009-12-19.47943 1.000E-05 08:11:20.590 1.500E-01 0.500 F -0.129 -0.332 +14° 05' 50.90" 1.000E-01 0.500 F 0.125 -0.189 21.4 V 0.70 -0.69 o 691 0.76 Yes Yes
2009XT6 O C t 2009-12-19.48436 1.000E-05 08:26:36.770 1.500E-01 0.500 F -0.071 1.554 +14° 18' 17.20" 1.000E-01 0.500 F 0.131 -0.722 18.6 V 0.70 0.19 o 691 3.34 No Yes
2009XT6 O C t 2009-12-19.50206 1.000E-05 08:26:25.800 1.500E-01 0.500 F -0.071 1.374 +14° 18' 37.90" 1.000E-01 0.500 F 0.131 -0.958 18.6 V 0.70 0.19 o 691 3.26 No Yes
1993EA O C 2009-12-19.51501 1.000E-05 11:54:03.800 1.500E-01 0.500 F 0.105 -0.210 +05° 16' 38.20" 1.000E-01 0.500 F 0.174 -0.219 19.5 V 0.70 0.02 o 691 0.61 Yes Yes
1993EA O C 2009-12-19.53366 1.000E-05 11:54:04.470 1.500E-01 0.500 F 0.105 -0.546 +05° 16' 39.00" 1.000E-01 0.500 F 0.174 -0.119 19.4 V 0.70 -0.08 o 691 1.12 Yes Yes
1993EA O C 2009-12-19.55230 1.000E-05 11:54:05.180 1.500E-01 0.500 F 0.105 -0.252 +05° 16' 39.70" 1.000E-01 0.500 F 0.174 -0.116 19.5 V 0.70 0.02 o 691 0.56 Yes Yes
1998WT O C H 2009-12-20.09638 1.000E-05 05:24:57.800 1.500E-01 0.500 F -0.192 -0.581 +27° 40' 20.10" 1.000E-01 0.500 F 0.215 0.288 19.8 V 0.70 0.73 o 691 1.30 Yes Yes
1998WT O C H 2009-12-20.11412 1.000E-05 05:24:55.090 1.500E-01 0.500 F -0.192 -0.034 +27° 40' 15.70" 1.000E-01 0.500 F 0.215 -0.272 20.0 V 0.70 0.93 o 691 0.55 Yes Yes
1998WT O C H 2009-12-20.13189 1.000E-05 05:24:52.320 1.500E-01 0.500 F -0.192 -0.137 +27° 40' 12.10" 1.000E-01 0.500 F 0.215 0.000 20.1 V 0.70 1.03 o 691 0.27 Yes Yes
2004KD1 O C 2009-12-20.19816 1.000E-05 06:45:27.940 1.500E-01 0.500 F -0.125 -0.079 +21° 52' 11.70" 1.000E-01 0.500 F 0.129 -0.094 o 691 0.25 Yes No
2009RN O C 2009-12-20.19816 1.000E-05 06:43:19.970 1.500E-01 0.500 F -0.054 -0.129 +22° 19' 39.20" 1.000E-01 0.500 F 0.124 -0.084 o 691 0.31 Yes No
2004KD1 O C 2009-12-20.21591 1.000E-05 06:45:26.260 1.500E-01 0.500 F -0.125 -0.407 +21° 52' 08.90" 1.000E-01 0.500 F 0.129 -0.124 o 691 0.86 Yes No
2002GD11 O C H 2009-12-20.21591 1.000E-05 06:45:36.730 1.500E-01 0.500 F -0.074 0.568 +23° 11' 32.00" 1.000E-01 0.500 F 0.113 -0.566 o 691 1.62 Yes No
2009RN O C 2009-12-20.21591 1.000E-05 06:43:19.850 1.500E-01 0.500 F -0.054 -0.492 +22° 19' 55.40" 1.000E-01 0.500 F 0.124 -0.060 o 691 1.01 Yes No
2004KD1 O C 2009-12-20.23367 1.000E-05 06:45:24.610 1.500E-01 0.500 F -0.125 -0.250 +21° 52' 06.10" 1.000E-01 0.500 F 0.129 -0.133 o 691 0.57 Yes No
2002GD11 O C H 2009-12-20.23367 1.000E-05 06:45:35.350 1.500E-01 0.500 F -0.074 -0.307 +23° 11' 36.00" 1.000E-01 0.500 F 0.113 -0.364 o 691 0.97 Yes No
2009RN O C 2009-12-20.23367 1.000E-05 06:43:19.760 1.500E-01 0.500 F -0.054 -0.185 +22° 20' 11.50" 1.000E-01 0.500 F 0.124 -0.045 o 691 0.39 Yes No
2006UR O C 2009-12-20.31115 1.000E-05 07:43:08.220 1.500E-01 0.500 F 0.056 0.029 +15° 25' 58.20" 1.000E-01 0.500 F 0.163 -0.007 o 691 0.06 Yes No
2006UR O C 2009-12-20.32883 1.000E-05 07:43:11.620 1.500E-01 0.500 F 0.056 -0.006 +15° 25' 03.40" 1.000E-01 0.500 F 0.163 -0.108 o 691 0.22 Yes No
1993MF O C H 2009-12-20.33402 1.000E-05 07:31:02.430 1.500E-01 0.500 F -0.157 -0.511 +13° 42' 14.50" 1.000E-01 0.500 F 0.136 0.122 o 691 1.05 Yes No
2006UR O C 2009-12-20.34652 1.000E-05 07:43:14.950 1.500E-01 0.500 F 0.056 -0.862 +15° 24' 08.70" 1.000E-01 0.500 F 0.163 0.085 o 691 1.75 Yes No
1993MF O C H 2009-12-20.35169 1.000E-05 07:31:01.400 1.500E-01 0.500 F -0.157 -0.006 +13° 42' 14.40" 1.000E-01 0.500 F 0.136 -0.136 o 691 0.27 Yes No
2009WF O C 2009-12-25.10755 1.000E-05 05:17:54.030 1.500E-01 0.612 F -0.017 -0.112 +22° 29' 32.50" 1.000E-01 0.612 F 0.214 -0.175 o 691 0.34 Yes No
2009WF O C 2009-12-25.11003 1.000E-05 05:17:53.770 1.500E-01 0.612 F -0.017 -0.174 +22° 29' 26.90" 1.000E-01 0.612 F 0.214 -0.277 o 691 0.54 Yes No
2009WF O C 2009-12-25.12525 1.000E-05 05:17:52.210 1.500E-01 0.612 F -0.017 0.019 +22° 28' 53.20" 1.000E-01 0.612 F 0.214 -0.222 o 691 0.37 Yes No
2009WF O C 2009-12-25.12772 1.000E-05 05:17:51.950 1.500E-01 0.612 F -0.017 -0.032 +22° 28' 47.60" 1.000E-01 0.612 F 0.214 -0.342 o 691 0.57 Yes No
2009WF O C 2009-12-25.14296 1.000E-05 05:17:50.380 1.500E-01 0.612 F -0.017 0.199 +22° 28' 13.80" 1.000E-01 0.612 F 0.214 -0.311 o 691 0.61 Yes No
2009WF O C 2009-12-25.14543 1.000E-05 05:17:50.090 1.500E-01 0.612 F -0.017 -0.245 +22° 28' 08.10" 1.000E-01 0.612 F 0.214 -0.525 o 691 0.96 Yes No
2009RN O C 2009-12-25.22463 1.000E-05 06:43:16.220 1.500E-01 0.500 F -0.038 -0.207 +23° 25' 45.30" 1.000E-01 0.500 F 0.087 0.083 o 691 0.45 Yes No
2009RN O C 2009-12-25.24233 1.000E-05 06:43:15.980 1.500E-01 0.500 F -0.038 -0.389 +23° 25' 58.60" 1.000E-01 0.500 F 0.087 0.069 o 691 0.80 Yes No
2009RN O C 2009-12-25.26002 1.000E-05 06:43:15.730 1.500E-01 0.500 F -0.038 -0.546 +23° 26' 11.60" 1.000E-01 0.500 F 0.087 -0.123 o 691 1.14 Yes No
2009XE11 O C 2009-12-25.34032 1.000E-05 07:30:02.560 1.500E-01 0.500 F -0.061 -0.453 +23° 24' 59.90" 1.000E-01 0.500 F 0.262 0.261 o 691 1.06 Yes No
2009XE11 O C 2009-12-25.35802 1.000E-05 07:30:01.560 1.500E-01 0.500 F -0.061 0.230 +23° 25' 08.50" 1.000E-01 0.500 F 0.262 -0.029 o 691 0.47 Yes No
2009XE11 O C 2009-12-25.37573 1.000E-05 07:30:00.480 1.500E-01 0.500 F -0.061 -0.170 +23° 25' 17.50" 1.000E-01 0.500 F 0.262 0.099 o 691 0.40 Yes No
2000OG8 O C H 2009-12-25.46516 1.000E-05 08:38:21.830 1.500E-01 0.500 F 0.038 -0.302 +18° 56' 59.40" 1.000E-01 0.500 F 0.110 -0.195 o 691 0.72 Yes No
1998QQ63 O C H 2009-12-25.46516 1.000E-05 08:39:46.530 1.500E-01 0.500 F 0.008 -0.105 +18° 42' 55.90" 1.000E-01 0.500 F 0.092 0.389 20.9 V 0.70 -0.20 o 691 0.82 Yes Yes
2000OG8 O C H 2009-12-25.48286 1.000E-05 08:38:20.630 1.500E-01 0.500 F 0.038 -0.319 +18° 57' 00.70" 1.000E-01 0.500 F 0.110 -0.449 o 691 1.10 Yes No
1998QQ63 O C H 2009-12-25.48286 1.000E-05 08:39:45.080 1.500E-01 0.500 F 0.038 -0.367 +18° 43' 02.50" 1.000E-01 0.500 F 0.110 0.420 21.2 V 0.70 0.10 o 691 1.14 Yes Yes
2000OG8 O C H 2009-12-25.50056 1.000E-05 08:38:19.430 1.500E-01 0.500 F 0.038 -0.359 +18° 57' 02.10" 1.000E-01 0.500 F 0.110 -0.584 o 691 1.37 Yes No
2009WC11 O C H 2009-12-26.12987 1.000E-05 05:57:45.910 1.500E-01 0.500 F -0.091 0.501 +26° 46' 16.50" 1.000E-01 0.500 F 0.121 -0.368 o 691 1.39 Yes No
2009WC11 O C H 2009-12-26.16876 1.000E-05 05:57:46.670 1.500E-01 0.500 F -0.091 -1.058 +26° 46' 32.00" 1.000E-01 0.500 F 0.121 0.559 20.6 V 0.70 0.03 o 691 2.69 Yes Yes
2009RN O C H 2009-12-26.20613 1.000E-05 06:43:12.750 1.500E-01 0.500 F -0.038 0.635 +23° 37' 15.20" 1.000E-01 0.500 F 0.087 0.186 18.5 V 0.70 0.23 o 691 1.35 Yes Yes
2009RN O C H 2009-12-26.22384 1.000E-05 06:43:12.470 1.500E-01 0.500 F -0.038 -0.140 +23° 37' 28.00" 1.000E-01 0.500 F 0.087 0.064 18.8 V 0.70 0.53 o 691 0.31 Yes Yes
2009RN O C H 2009-12-26.24155 1.000E-05 06:43:12.230 1.500E-01 0.500 F -0.038 -0.181 +23° 37' 40.70" 1.000E-01 0.500 F 0.087 -0.051 18.8 V 0.70 0.53 o 691 0.38 Yes Yes
1991BN O C H 2009-12-26.31747 1.000E-05 07:24:41.040 1.500E-01 0.500 F -0.015 0.076 +20° 00' 06.70" 1.000E-01 0.500 F 0.238 -0.198 o 691 0.43 Yes No
2005QL O C 2009-12-26.32489 1.000E-05 07:43:26.280 1.500E-01 0.500 F -0.067 -0.287 +19° 27' 34.70" 1.000E-01 0.500 F 0.261 0.219 19.3 V 0.70 0.28 o 691 0.74 Yes Yes
1991BN O C H 2009-12-26.33862 1.000E-05 07:24:37.470 1.500E-01 0.500 F -0.015 0.390 +20° 00' 06.00" 1.000E-01 0.500 F 0.238 -0.480 o 691 1.24 Yes No
2005QL O C 2009-12-26.34604 1.000E-05 07:43:24.760 1.500E-01 0.500 F -0.067 -0.242 +19° 28' 01.30" 1.000E-01 0.500 F 0.261 0.064 19.3 V 0.70 0.28 o 691 0.52 Yes Yes
1991BN O C H 2009-12-26.35633 1.000E-05 07:24:34.420 1.500E-01 0.500 F -0.015 -0.182 +20° 00' 05.30" 1.000E-01 0.500 F 0.238 -0.747 o 691 1.54 Yes No
2005QL O C 2009-12-26.36376 1.000E-05 07:43:23.480 1.500E-01 0.500 F -0.067 -0.263 +19° 28' 23.70" 1.000E-01 0.500 F 0.261 0.113 19.5 V 0.70 0.49 o 691 0.59 Yes Yes
1993DQ1 O C H 2009-12-26.43781 1.000E-05 08:34:05.940 1.500E-01 0.500 F 0.015 -0.704 +23° 19' 14.90" 1.000E-01 0.500 F 0.248 -0.741 20.7 V 0.70 -0.46 o 691 2.05 Yes Yes
2002NX O C 2009-12-26.44300 1.000E-05 08:16:36.940 1.500E-01 0.500 F -0.018 -0.372 +20° 44' 03.30" 1.000E-01 0.500 F 0.267 -0.049 20.6 V 0.70 -0.23 o 691 0.76 Yes Yes
1993DQ1 O C H 2009-12-26.45553 1.000E-05 08:34:04.950 1.500E-01 0.500 F 0.015 0.013 +23° 19' 17.70" 1.000E-01 0.500 F 0.248 -0.468 21.2 V 0.70 0.04 o 691 0.94 Yes Yes
2002NX O C 2009-12-26.46072 1.000E-05 08:16:34.760 1.500E-01 0.500 F -0.018 -0.177 +20° 43' 55.70" 1.000E-01 0.500 F 0.267 -0.512 20.8 V 0.70 -0.03 o 691 1.08 Yes Yes
1993DQ1 O C H 2009-12-26.47324 1.000E-05 08:34:03.850 1.500E-01 0.500 F 0.015 -0.801 +23° 19' 20.30" 1.000E-01 0.500 F 0.248 -0.378 21.3 V 0.70 0.14 o 691 1.77 Yes Yes
2002NX O C 2009-12-26.47843 1.000E-05 08:16:32.550 1.500E-01 0.500 F -0.018 -0.461 +20° 43' 48.50" 1.000E-01 0.500 F 0.267 -0.543 21.3 V 0.70 0.47 o 691 1.43 Yes Yes
1994CN2 O C 2009-12-26.49926 1.000E-05 12:17:41.060 1.500E-01 0.500 F 0.233 -0.813 -00° 25' 05.70" 1.000E-01 0.500 F 0.095 0.581 20.3 V 0.70 -0.79 o 691 2.00 Yes Yes
1996HW1 O C 2009-12-26.50448 1.000E-05 12:13:22.730 1.500E-01 0.500 F 0.250 -0.343 -03° 32' 51.00" 1.000E-01 0.500 F 0.059 -0.182 20.9 V 0.70 0.13 o 691 0.78 Yes Yes
1994CN2 O C 2009-12-26.52133 1.000E-05 12:17:42.170 1.500E-01 0.500 F 0.233 -0.238 -00° 25' 12.20" 1.000E-01 0.500 F 0.095 0.116 20.3 V 0.70 -0.79 o 691 0.53 Yes Yes
1996HW1 O C 2009-12-26.52655 1.000E-05 12:13:23.380 1.500E-01 0.500 F 0.250 -0.502 -03° 32' 54.30" 1.000E-01 0.500 F 0.059 -0.064 21.2 V 0.70 0.43 o 691 1.01 Yes Yes
1994CN2 O C 2009-12-26.53997 1.000E-05 12:17:43.030 1.500E-01 0.500 F 0.233 -0.894 -00° 25' 17.60" 1.000E-01 0.500 F 0.095 -0.190 20.5 V 0.70 -0.59 o 691 1.83 Yes Yes
1996HW1 O C 2009-12-26.54519 1.000E-05 12:13:23.940 1.500E-01 0.500 F 0.250 -0.457 -03° 32' 57.20" 1.000E-01 0.500 F 0.059 -0.082 20.7 V 0.70 -0.07 o 691 0.93 Yes Yes
2002UO O C 2009-12-27.33980 1.000E-05 07:55:06.580 1.500E-01 0.500 F -0.031 -0.051 +25° 16' 58.30" 1.000E-01 0.500 F 0.200 0.438 o 691 0.88 Yes No
2005UP156 O C H 2009-12-27.39721 1.000E-05 08:04:31.460 1.500E-01 0.500 F -0.128 0.176 +14° 18' 26.40" 1.000E-01 0.500 F 0.133 -0.240 o 691 0.60 Yes No
2005UP156 O C H 2009-12-27.43261 1.000E-05 08:04:29.430 1.500E-01 0.500 F -0.128 0.528 +14° 18' 30.10" 1.000E-01 0.500 F 0.133 -0.604 o 691 1.61 Yes No
1996HW1 O C H 2009-12-27.45735 1.000E-05 12:13:51.910 1.500E-01 0.500 F 0.250 -0.046 -03° 35' 15.90" 1.000E-01 0.500 F 0.059 -0.976 o 691 1.95 Yes No
1996HW1 O C H 2009-12-27.47596 1.000E-05 12:13:52.480 1.500E-01 0.500 F 0.250 0.388 -03° 35' 18.40" 1.000E-01 0.500 F 0.059 -0.717 o 691 1.63 Yes No
1994CN2 O C H 2009-12-27.48936 1.000E-05 12:18:30.190 1.500E-01 0.500 F 0.233 0.205 -00° 29' 32.70" 1.000E-01 0.500 F 0.095 0.311 21.4 V 0.70 0.32 o 691 0.75 Yes Yes
1996HW1 O C H 2009-12-27.49458 1.000E-05 12:13:52.980 1.500E-01 0.500 F 0.250 -0.208 -03° 35' 20.60" 1.000E-01 0.500 F 0.059 -0.160 21.0 V 0.70 0.24 o 691 0.52 Yes Yes
2003CY18 O C 2010-01-04.10846 1.000E-05 05:35:46.580 1.500E-01 0.500 F -0.139 -0.461 +18° 26' 41.10" 1.000E-01 0.500 F 0.151 -0.183 o 691 0.99 Yes No
2003CY18 O C 2010-01-04.13510 1.000E-05 05:35:44.120 1.500E-01 0.500 F -0.139 -0.047 +18° 26' 48.10" 1.000E-01 0.500 F 0.151 0.195 o 691 0.40 Yes No
2003CY18 O C 2010-01-04.16173 1.000E-05 05:35:41.600 1.500E-01 0.500 F -0.139 -0.391 +18° 26' 54.40" 1.000E-01 0.500 F 0.151 -0.080 o 691 0.80 Yes No
2006KZ37 O C t 2010-01-04.16975 1.000E-05 05:35:33.850 1.500E-01 0.500 F -0.046 0.681 +26° 26' 57.00" 1.000E-01 0.500 F 0.150 -0.816 18.5 V 0.70 -0.12 o 691 2.14 Yes Yes
2009WK6 O C H 2010-01-04.18014 1.000E-05 05:45:54.110 1.500E-01 0.500 F -0.069 0.530 +18° 52' 51.90" 1.000E-01 0.500 F 0.158 0.919 21.1 V 0.70 -0.18 o 691 2.19 Yes Yes
2002AP7 O C t 2010-01-04.18821 1.000E-05 05:48:06.710 1.500E-01 0.500 F -0.087 0.849 +24° 31' 45.30" 1.000E-01 0.500 F 0.177 -0.751 18.4 V 0.70 -0.14 o 691 2.28 Yes Yes
2006KZ37 O C t 2010-01-04.19081 1.000E-05 05:35:30.870 1.500E-01 0.500 F -0.046 0.492 +26° 27' 48.30" 1.000E-01 0.500 F 0.150 -0.574 18.3 V 0.70 -0.32 o 691 1.53 Yes Yes
2006KZ37 O C H 2010-01-04.21531 1.000E-05 05:35:27.360 1.500E-01 0.500 F -0.046 -0.184 +26° 28' 47.90" 1.000E-01 0.500 F 0.150 -0.159 o 691 0.50 Yes No
2009WK6 O C H 2010-01-04.22569 1.000E-05 05:45:50.620 1.500E-01 0.500 F -0.069 -0.645 +18° 52' 43.70" 1.000E-01 0.500 F 0.158 -0.330 21.5 V 0.70 0.21 o 691 1.50 Yes Yes
2005QL O C t 2010-01-04.31103 1.000E-05 07:32:55.060 1.500E-01 0.500 F -0.028 0.453 +22° 27' 34.40" 1.000E-01 0.500 F 0.215 -0.357 18.8 V 0.70 -0.09 o 691 1.18 Yes Yes
2005QL O C t 2010-01-04.34647 1.000E-05 07:32:52.320 1.500E-01 0.500 F -0.028 0.744 +22° 28' 14.30" 1.000E-01 0.500 F 0.215 -0.433 18.7 V 0.70 -0.19 o 691 1.77 Yes Yes
2001RE8 O C H 2010-01-05.11194 1.000E-05 05:11:06.830 1.500E-01 0.500 F -0.139 -0.332 +19° 08' 11.60" 1.000E-01 0.500 F 0.153 0.274 21.0 V 0.70 -0.29 o 691 0.87 Yes Yes
2001RE8 O C H 2010-01-05.16588 1.000E-05 05:11:02.430 1.500E-01 0.500 F -0.139 -0.177 +19° 07' 40.50" 1.000E-01 0.500 F 0.153 0.370 20.9 V 0.70 -0.39 o 691 0.82 Yes Yes
Itokawa O C t 2010-01-05.17136 1.000E-05 05:22:19.600 1.500E-01 0.500 F -0.025 0.363 +25° 07' 38.30" 1.000E-01 0.500 F 0.030 -0.865 19.9 V 0.70 0.42 o 691 1.88 Yes Yes
2000OG8 O C H 2010-01-05.24156 1.000E-05 08:25:14.800 1.500E-01 0.500 F 0.009 -0.401 +19° 16' 39.20" 1.000E-01 0.500 F 0.237 -0.319 20.8 V 0.70 0.22 o 691 1.03 Yes Yes
1998QQ63 O C H 2010-01-05.24156 1.000E-05 08:24:11.350 1.500E-01 0.500 F 0.009 -0.800 +19° 53' 12.10" 1.000E-01 0.500 F 0.237 0.511 21.1 V 0.70 0.14 o 691 1.94 Yes Yes
2000OG8 O C H 2010-01-05.27472 1.000E-05 08:25:12.110 1.500E-01 0.500 F 0.009 -0.462 +19° 16' 42.90" 1.000E-01 0.500 F 0.237 -0.868 o 691 1.97 Yes No
1998QQ63 O C H 2010-01-05.27472 1.000E-05 08:24:08.170 1.500E-01 0.500 F 0.009 -0.597 +19° 53' 23.90" 1.000E-01 0.500 F 0.237 -1.098 20.8 V 0.70 -0.16 o 691 2.55 Yes Yes
2010AE O C 2010-01-05.39772 1.000E-05 09:28:01.680 1.500E-01 0.500 F 0.073 -0.041 +15° 58' 22.60" 1.000E-01 0.500 F 0.285 -0.087 19.1 V 0.70 0.15 o 691 0.19 Yes Yes
1999XA143 O C 2010-01-05.40530 1.000E-05 09:27:16.430 1.500E-01 0.500 F 0.100 -0.250 +14° 12' 24.50" 1.000E-01 0.500 F 0.213 -0.044 o 691 0.51 Yes No
2010AE O C 2010-01-05.41544 1.000E-05 09:28:01.370 1.500E-01 0.500 F 0.073 -0.150 +15° 57' 39.50" 1.000E-01 0.500 F 0.285 -0.080 19.1 V 0.70 0.16 o 691 0.34 Yes Yes
1999XA143 O C 2010-01-05.42301 1.000E-05 09:27:16.960 1.500E-01 0.500 F 0.100 -0.290 +14° 13' 23.70" 1.000E-01 0.500 F 0.213 -0.059 o 691 0.59 Yes No
2010AE O C 2010-01-05.43314 1.000E-05 09:28:01.070 1.500E-01 0.500 F 0.073 -0.102 +15° 56' 56.30" 1.000E-01 0.500 F 0.285 -0.117 18.9 V 0.70 -0.04 o 691 0.31 Yes Yes
1999XA143 O C 2010-01-05.44071 1.000E-05 09:27:17.500 1.500E-01 0.500 F 0.100 -0.186 +14° 14' 23.00" 1.000E-01 0.500 F 0.213 0.041 o 691 0.38 Yes No
2002AP7 O C 2010-01-06.07867 1.000E-05 05:43:58.230 1.500E-01 0.500 F -0.096 2.067 +26° 19' 37.30" 1.000E-01 0.500 F 0.122 -1.596 18.3 V 0.70 -0.37 o 691 5.19 No Yes
2002AP7 O C 2010-01-06.09188 1.000E-05 05:43:56.290 1.500E-01 0.500 F -0.096 -0.281 +26° 20' 23.80" 1.000E-01 0.500 F 0.122 0.001 19.1 V 0.70 0.43 o 691 0.57 Yes Yes
2002AP7 O C 2010-01-06.10508 1.000E-05 05:43:54.520 1.500E-01 0.500 F -0.096 -0.246 +26° 21' 08.70" 1.000E-01 0.500 F 0.122 0.078 18.9 V 0.70 0.23 o 691 0.52 Yes Yes
2002NX O C t 2010-01-06.17300 1.000E-05 07:54:09.780 1.500E-01 0.500 F -0.051 0.807 +19° 33' 53.10" 1.000E-01 0.500 F 0.217 -0.455 20.4 V 0.70 -0.21 o 691 1.87 Yes Yes
2002NX O C t 2010-01-06.19070 1.000E-05 07:54:07.470 1.500E-01 0.500 F -0.051 0.628 +19° 33' 46.70" 1.000E-01 0.500 F 0.217 -0.272 20.2 V 0.70 -0.40 o 691 1.38 Yes Yes
2002NX O C t 2010-01-06.20599 1.000E-05 07:54:05.470 1.500E-01 0.500 F -0.051 0.483 +19° 33' 40.60" 1.000E-01 0.500 F 0.217 -0.668 20.8 V 0.70 0.20 o 691 1.66 Yes Yes
2000OG8 O C 2010-01-06.21887 1.000E-05 08:23:57.210 1.500E-01 0.500 F 0.009 0.149 +19° 18' 37.70" 1.000E-01 0.500 F 0.237 0.044 20.5 V 0.70 -0.07 o 691 0.32 Yes Yes
2000OG8 O C 2010-01-06.23658 1.000E-05 08:23:55.740 1.500E-01 0.500 F 0.009 -0.248 +19° 18' 39.80" 1.000E-01 0.500 F 0.237 -0.163 20.4 V 0.70 -0.17 o 691 0.60 Yes Yes
2000OG8 O C 2010-01-06.25425 1.000E-05 08:23:54.310 1.500E-01 0.500 F 0.009 -0.071 +19° 18' 42.00" 1.000E-01 0.500 F 0.237 -0.250 20.5 V 0.70 -0.07 o 691 0.52 Yes Yes
2010AJ O C 2010-01-06.28873 1.000E-05 08:57:06.270 1.500E-01 0.500 F -0.047 -0.001 +13° 48' 57.30" 1.000E-01 0.500 F 0.191 -0.297 20.3 V 0.70 -0.15 o 691 0.61 Yes Yes
2010AJ O C 2010-01-06.30644 1.000E-05 08:57:04.970 1.500E-01 0.500 F -0.047 -0.124 +13° 49' 01.70" 1.000E-01 0.500 F 0.191 -0.338 20.5 V 0.70 0.05 o 691 0.73 Yes Yes
2010AJ O C 2010-01-06.32414 1.000E-05 08:57:03.650 1.500E-01 0.500 F -0.047 -0.450 +13° 49' 06.60" 1.000E-01 0.500 F 0.191 0.158 20.4 V 0.70 -0.05 o 691 0.99 Yes Yes
2002XA40 O C H 2010-01-06.39684 1.000E-05 09:53:05.470 1.500E-01 0.500 F 0.057 -0.022 +11° 35' 56.30" 1.000E-01 0.500 F 0.148 -0.025 20.7 V 0.70 -0.08 o 691 0.07 Yes Yes
2002XA40 O C H 2010-01-06.41454 1.000E-05 09:53:04.550 1.500E-01 0.500 F 0.057 0.000 +11° 35' 58.50" 1.000E-01 0.500 F 0.148 -0.282 o 691 0.56 Yes No
2002XA40 O C H 2010-01-06.43220 1.000E-05 09:53:03.610 1.500E-01 0.500 F 0.057 -0.288 +11° 36' 01.80" 1.000E-01 0.500 F 0.148 0.576 20.6 V 0.70 -0.18 o 691 1.29 Yes Yes
2010AL O C 2010-01-06.45868 1.000E-05 10:22:36.890 1.500E-01 0.500 F 0.057 -0.066 +12° 06' 14.90" 1.000E-01 0.500 F 0.128 -0.236 20.2 V 0.70 -0.27 o 691 0.50 Yes Yes
1997YM3 O C H 2010-01-06.46386 1.000E-05 10:05:23.080 1.500E-01 0.500 F 0.100 -0.553 +10° 23' 54.10" 1.000E-01 0.500 F 0.085 0.083 21.0 V 0.70 -0.34 o 691 1.14 Yes Yes
2010AL O C 2010-01-06.47398 1.000E-05 10:22:43.270 1.500E-01 0.500 F 0.057 -0.237 +12° 06' 42.30" 1.000E-01 0.500 F 0.128 -0.153 20.2 V 0.70 -0.27 o 691 0.59 Yes Yes
2010AL O C 2010-01-06.48927 1.000E-05 10:22:49.640 1.500E-01 0.500 F 0.057 -0.596 +12° 07' 09.50" 1.000E-01 0.500 F 0.128 -0.178 20.4 V 0.70 -0.07 o 691 1.29 Yes Yes
1997YM3 O C H 2010-01-06.49445 1.000E-05 10:05:21.740 1.500E-01 0.500 F 0.100 0.975 +10° 23' 59.30" 1.000E-01 0.500 F 0.085 0.497 20.6 V 0.70 -0.74 o 691 2.22 Yes Yes
2002AP7 O C 2010-01-07.19236 1.000E-05 05:41:35.620 1.500E-01 0.500 F -0.090 -0.227 +27° 21' 00.30" 1.000E-01 0.500 F 0.133 0.093 19.1 V 0.70 0.36 o 691 0.49 Yes Yes
2009WK6 O C H 2010-01-07.20033 1.000E-05 05:42:30.110 1.500E-01 0.500 F -0.072 -0.567 +18° 45' 22.40" 1.000E-01 0.500 F 0.126 -0.314 21.4 V 0.70 -0.05 o 691 1.34 Yes Yes
2002AP7 O C 2010-01-07.20321 1.000E-05 05:41:34.170 1.500E-01 0.500 F -0.090 -0.116 +27° 21' 35.70" 1.000E-01 0.500 F 0.133 -0.014 19.0 V 0.70 0.26 o 691 0.24 Yes Yes
2009WK6 O C H 2010-01-07.21117 1.000E-05 05:42:29.500 1.500E-01 0.500 F -0.072 0.983 +18° 45' 21.00" 1.000E-01 0.500 F 0.126 -0.258 21.6 V 0.70 0.15 o 691 2.08 Yes Yes
2002AP7 O C 2010-01-07.21406 1.000E-05 05:41:32.680 1.500E-01 0.500 F -0.090 -0.515 +27° 22' 11.30" 1.000E-01 0.500 F 0.133 0.131 18.8 V 0.70 0.06 o 691 1.07 Yes Yes
2009FF19 O C H 2010-01-07.22773 1.000E-05 08:22:49.120 1.500E-01 0.500 F -0.018 -1.455 +20° 09' 25.60" 1.000E-01 0.500 F 0.246 -1.176 21.3 V 0.70 -0.26 o 691 3.69 No Yes
2009FF19 O C H 2010-01-07.24546 1.000E-05 08:22:46.180 1.500E-01 0.500 F -0.018 -0.083 +20° 09' 37.60" 1.000E-01 0.500 F 0.246 -0.220 o 691 0.47 Yes No
2009FF19 O C H 2010-01-07.26318 1.000E-05 08:22:43.120 1.500E-01 0.500 F -0.018 -0.301 +20° 09' 48.70" 1.000E-01 0.500 F 0.246 -0.109 o 691 0.65 Yes No
2001KY66 O C H 2010-01-08.21808 1.000E-05 08:21:27.780 1.500E-01 0.500 F -0.086 -0.094 +15° 11' 58.90" 1.000E-01 0.500 F 0.120 -0.078 19.3 V 0.70 0.39 o 691 0.25 Yes Yes
2001KY66 O C H 2010-01-08.23580 1.000E-05 08:21:25.880 1.500E-01 0.500 F -0.086 -0.193 +15° 11' 59.30" 1.000E-01 0.500 F 0.120 -0.012 19.3 V 0.70 0.39 o 691 0.39 Yes Yes
2004OT11 O C H 2010-01-08.27924 1.000E-05 08:53:59.270 1.500E-01 0.500 F -0.006 -0.094 +12° 54' 31.20" 1.000E-01 0.500 F 0.205 -0.304 21.2 V 0.70 0.34 o 691 0.64 Yes Yes
2004OT11 O C H 2010-01-08.29697 1.000E-05 08:53:57.980 1.500E-01 0.500 F -0.006 -0.275 +12° 54' 28.40" 1.000E-01 0.500 F 0.205 -0.345 o 691 0.89 Yes No
2004OT11 O C H 2010-01-08.31470 1.000E-05 08:53:56.680 1.500E-01 0.500 F -0.006 -0.563 +12° 54' 25.30" 1.000E-01 0.500 F 0.205 -0.676 o 691 1.77 Yes No
1996AS1 O C H 2010-01-08.40540 1.000E-05 09:45:04.460 1.500E-01 0.500 F 0.195 0.784 +07° 34' 20.60" 1.000E-01 0.500 F 0.192 -0.325 o 691 1.70 Yes No
1996AS1 O C H 2010-01-08.44069 1.000E-05 09:45:02.520 1.500E-01 0.500 F 0.195 0.409 +07° 34' 14.00" 1.000E-01 0.500 F 0.192 -0.419 o 691 1.17 Yes No
1993DQ1 O C H 2010-01-10.19611 1.000E-05 08:17:45.030 1.500E-01 0.500 F -0.037 -1.040 +23° 55' 05.10" 1.000E-01 0.500 F 0.181 0.093 21.1 V 0.70 0.28 o 691 2.09 Yes Yes
1993DQ1 O C H 2010-01-10.21386 1.000E-05 08:17:43.800 1.500E-01 0.500 F -0.037 0.327 +23° 55' 07.20" 1.000E-01 0.500 F 0.181 -0.368 21.0 V 0.70 0.18 o 691 0.99 Yes Yes
2010AJ O C 2010-01-10.22934 1.000E-05 08:52:29.110 1.500E-01 0.500 F 0.075 -0.003 +14° 05' 53.40" 1.000E-01 0.500 F 0.141 0.347 o 691 0.70 Yes No
2010AJ O C 2010-01-10.24707 1.000E-05 08:52:27.740 1.500E-01 0.500 F 0.075 -0.143 +14° 05' 58.30" 1.000E-01 0.500 F 0.141 0.078 o 691 0.33 Yes No

[1-200] [201-400] [401-600] [601-800] [801-1000] [1001-1200] [1201-1400] [1401-1600] [1601-1800] [1801-2000] [2001-2200] [2201-2400] [2401-2600] [2601-2800] [2801-3000] [3001-3200] [3201-3400] [3401-3600] [3601-3800] [3801-4000] [4001-4200] [4201-4400] [4401-4600] [4601-4800] [4801-5000] [5001-5200] [5201-5400] [5401-5600] [5601-5800] [5801-6000] [6001-6200] [6201-6400] [6401-6600] [6601-6800] [6801-7000] [7001-7200] [7201-7400] [7401-7600] [7601-7800] [7801-8000] [8001-8200] [8201-8400] [8401-8600] [8601-8800] [8801-9000] [9001-9200] [9201-9400] [9401-9600] [9601-9800] [9801-10000] [10001-10200] [10201-10400] [10401-10600] [10601-10800] [10801-11000] [11001-11200] [11201-11400] [11401-11600] [11601-11800] [11801-12000] [12001-12200] [12201-12400] [12401-12600] [12601-12800] [12801-13000] [13001-13200] [13201-13400] [13401-13600] [13601-13800] [13801-14000] [14001-14200] [14201-14400] [14401-14600] [14601-14800] [14801-15000] [15001-15200] [15201-15400] [15401-15600] [15601-15800] [15801-16000] [16001-16200] [16201-16400] [16401-16600] [16601-16800] [16801-17000] [17001-17200] [17201-17400] [17401-17600] [17601-17800] [17801-18000] [18001-18200] [18201-18400] [18401-18600] [18601-18800] [18801-19000] [19001-19200] [19201-19400] [19401-19600] [19601-19800] [19801-20000] [20001-20200] [20201-20400] [20401-20600] [20601-20800] [20801-21000] [21001-21200] [21201-21400] [21401-21600] [21601-21800] [21801-22000] [22001-22200] [22201-22400] [22401-22600] [22601-22800] [22801-23000] [23001-23200] [23201-23400] [23401-23600] [23601-23800] [23801-24000] [24001-24200] [24201-24400] [24401-24600] [24601-24800] [24801-25000] [25001-25200] [25201-25400] [25401-25600] [25601-25800] [25801-26000] [26001-26200] [26201-26400] [26401-26600] [26601-26800] [26801-27000] [27001-27200] [27201-27400] [27401-27600] [27601-27800] [27801-28000] [28001-28200] [28201-28400] [28401-28600] [28601-28800] [28801-29000] [29001-29200] [29201-29400] [29401-29600] [29601-29800] [29801-30000] [30001-30200] [30201-30400] [30401-30600] [30601-30800] [30801-31000] [31001-31200] [31201-31400] [31401-31600] [31601-31800] [31801-32000] [32001-32200] [32201-32400] [32401-32600] [32601-32800] [32801-33000] [33001-33200] [33201-33400] [33401-33600] [33601-33800] [33801-34000] [34001-34200] [34201-34400] [34401-34600] [34601-34800] [34801-35000] [35001-35200] [35201-35400] [35401-35600] [35601-35800] [35801-36000] [36001-36200] [36201-36400] [36401-36600] [36601-36800] [36801-37000] [37001-37200] [37201-37400] [37401-37600] [37601-37800] [37801-38000] [38001-38200] [38201-38400] [38401-38600] [38601-38800] [38801-39000] [39001-39200] [39201-39400] [39401-39600] [39601-39800] [39801-40000] [40001-40200] [40201-40400] [40401-40600] [40601-40800] [40801-41000] [41001-41200] [41201-41400] [41401-41600] [41601-41800] [41801-42000] [42001-42200] [42201-42400] [42401-42600] [42601-42800] [42801-43000] [43001-43200] [43201-43400] [43401-43600] [43601-43800] [43801-44000] [44001-44200] [44201-44400] [44401-44600] [44601-44800] [44801-45000] [45001-45200] [45201-45400] [45401-45600] [45601-45800] [45801-46000] [46001-46200] [46201-46400] [46401-46600] [46601-46800] [46801-47000] [47001-47200] [47201-47400] [47401-47600] [47601-47800] [47801-48000] [48001-48200] [48201-48400] [48401-48600] [48601-48800] [48801-49000] [49001-49200] [49201-49400] [49401-49600] [49601-49800] [49801-50000] [50001-50200] [50201-50388]